sensor_id;sensor_type;location;lat;lon;timestamp;temperature;humidity
16964;DHT22;8598;50.508;10.436;2022-09-14T00:01:17;15.80;99.90
16964;DHT22;8598;50.508;10.436;2022-09-14T00:03:45;15.80;99.90
16964;DHT22;8598;50.508;10.436;2022-09-14T00:06:14;15.70;99.90
16964;DHT22;8598;50.508;10.436;2022-09-14T00:08:41;15.70;99.90
16964;DHT22;8598;50.508;10.436;2022-09-14T00:11:10;15.70;99.90
16964;DHT22;8598;50.508;10.436;2022-09-14T00:13:38;15.70;99.90
16964;DHT22;8598;50.508;10.436;2022-09-14T00:16:09;15.80;99.90
16964;DHT22;8598;50.508;10.436;2022-09-14T00:18:36;15.70;99.90
16964;DHT22;8598;50.508;10.436;2022-09-14T00:21:06;15.80;99.90
16964;DHT22;8598;50.508;10.436;2022-09-14T00:23:34;15.80;99.90
16964;DHT22;8598;50.508;10.436;2022-09-14T00:26:03;15.80;99.90
16964;DHT22;8598;50.508;10.436;2022-09-14T00:28:30;15.70;99.90
16964;DHT22;8598;50.508;10.436;2022-09-14T00:31:02;15.70;99.90
16964;DHT22;8598;50.508;10.436;2022-09-14T00:33:29;15.70;99.90
16964;DHT22;8598;50.508;10.436;2022-09-14T00:36:01;15.80;99.90
16964;DHT22;8598;50.508;10.436;2022-09-14T00:38:30;15.80;99.90
16964;DHT22;8598;50.508;10.436;2022-09-14T00:40:57;15.80;99.90
16964;DHT22;8598;50.508;10.436;2022-09-14T00:43:24;15.70;99.90
16964;DHT22;8598;50.508;10.436;2022-09-14T00:45:51;15.70;99.90
16964;DHT22;8598;50.508;10.436;2022-09-14T00:48:18;15.70;99.90
16964;DHT22;8598;50.508;10.436;2022-09-14T00:50:45;15.70;99.90
16964;DHT22;8598;50.508;10.436;2022-09-14T00:53:12;15.70;99.90
16964;DHT22;8598;50.508;10.436;2022-09-14T00:55:40;15.70;99.90
16964;DHT22;8598;50.508;10.436;2022-09-14T00:58:07;15.70;99.90
16964;DHT22;8598;50.508;10.436;2022-09-14T01:00:33;15.70;99.90
16964;DHT22;8598;50.508;10.436;2022-09-14T01:03:00;15.70;99.90
16964;DHT22;8598;50.508;10.436;2022-09-14T01:05:36;15.70;99.90
16964;DHT22;8598;50.508;10.436;2022-09-14T01:08:17;15.70;99.90
16964;DHT22;8598;50.508;10.436;2022-09-14T01:11:02;15.60;99.90
16964;DHT22;8598;50.508;10.436;2022-09-14T01:13:38;15.70;99.90
16964;DHT22;8598;50.508;10.436;2022-09-14T01:16:13;15.70;99.90
16964;DHT22;8598;50.508;10.436;2022-09-14T01:18:44;15.70;99.90
16964;DHT22;8598;50.508;10.436;2022-09-14T01:21:13;15.70;99.90
16964;DHT22;8598;50.508;10.436;2022-09-14T01:23:47;15.60;99.90
16964;DHT22;8598;50.508;10.436;2022-09-14T01:29:21;15.60;99.90
16964;DHT22;8598;50.508;10.436;2022-09-14T01:31:53;15.60;99.90
16964;DHT22;8598;50.508;10.436;2022-09-14T01:34:27;15.60;99.90
16964;DHT22;8598;50.508;10.436;2022-09-14T01:36:59;15.60;99.90
16964;DHT22;8598;50.508;10.436;2022-09-14T01:39:30;15.60;99.90
16964;DHT22;8598;50.508;10.436;2022-09-14T01:42:00;15.60;99.90
16964;DHT22;8598;50.508;10.436;2022-09-14T01:44:31;15.50;99.90
16964;DHT22;8598;50.508;10.436;2022-09-14T01:47:02;15.60;99.90
16964;DHT22;8598;50.508;10.436;2022-09-14T01:49:33;15.50;99.90
16964;DHT22;8598;50.508;10.436;2022-09-14T01:52:04;15.60;99.90
16964;DHT22;8598;50.508;10.436;2022-09-14T01:54:35;15.60;99.90
16964;DHT22;8598;50.508;10.436;2022-09-14T01:57:09;15.60;99.90
16964;DHT22;8598;50.508;10.436;2022-09-14T01:59:43;15.60;99.90
16964;DHT22;8598;50.508;10.436;2022-09-14T02:02:13;15.60;99.90
16964;DHT22;8598;50.508;10.436;2022-09-14T02:04:46;15.60;99.90
16964;DHT22;8598;50.508;10.436;2022-09-14T02:07:14;15.70;99.90
16964;DHT22;8598;50.508;10.436;2022-09-14T02:09:41;15.70;99.90
16964;DHT22;8598;50.508;10.436;2022-09-14T02:12:08;15.70;99.90
16964;DHT22;8598;50.508;10.436;2022-09-14T02:14:35;15.60;99.90
16964;DHT22;8598;50.508;10.436;2022-09-14T02:17:03;15.60;99.90
16964;DHT22;8598;50.508;10.436;2022-09-14T02:19:39;15.60;99.90
16964;DHT22;8598;50.508;10.436;2022-09-14T02:22:06;15.70;99.90
16964;DHT22;8598;50.508;10.436;2022-09-14T02:24:33;15.70;99.90
16964;DHT22;8598;50.508;10.436;2022-09-14T02:27:01;15.70;99.90
16964;DHT22;8598;50.508;10.436;2022-09-14T02:29:28;15.70;99.90
16964;DHT22;8598;50.508;10.436;2022-09-14T02:32:07;15.70;99.90
16964;DHT22;8598;50.508;10.436;2022-09-14T02:34:42;15.70;99.90
16964;DHT22;8598;50.508;10.436;2022-09-14T02:37:11;15.70;99.90
16964;DHT22;8598;50.508;10.436;2022-09-14T02:39:46;15.70;99.90
16964;DHT22;8598;50.508;10.436;2022-09-14T02:42:24;15.70;99.90
16964;DHT22;8598;50.508;10.436;2022-09-14T02:44:59;15.70;99.90
16964;DHT22;8598;50.508;10.436;2022-09-14T02:47:33;15.80;99.90
16964;DHT22;8598;50.508;10.436;2022-09-14T02:50:16;15.70;99.90
16964;DHT22;8598;50.508;10.436;2022-09-14T02:52:48;15.80;99.90
16964;DHT22;8598;50.508;10.436;2022-09-14T02:55:18;15.70;99.90
16964;DHT22;8598;50.508;10.436;2022-09-14T02:57:59;15.70;99.90
16964;DHT22;8598;50.508;10.436;2022-09-14T03:00:27;15.70;99.90
16964;DHT22;8598;50.508;10.436;2022-09-14T03:02:55;15.70;99.90
16964;DHT22;8598;50.508;10.436;2022-09-14T03:05:22;15.70;99.90
16964;DHT22;8598;50.508;10.436;2022-09-14T03:07:48;15.80;99.90
16964;DHT22;8598;50.508;10.436;2022-09-14T03:10:15;15.80;99.90
16964;DHT22;8598;50.508;10.436;2022-09-14T03:12:42;15.80;99.90
16964;DHT22;8598;50.508;10.436;2022-09-14T03:15:10;15.80;99.90
16964;DHT22;8598;50.508;10.436;2022-09-14T03:17:36;15.80;99.90
16964;DHT22;8598;50.508;10.436;2022-09-14T03:20:05;15.80;99.90
16964;DHT22;8598;50.508;10.436;2022-09-14T03:22:31;15.80;99.90
16964;DHT22;8598;50.508;10.436;2022-09-14T03:24:58;15.80;99.90
16964;DHT22;8598;50.508;10.436;2022-09-14T03:27:25;15.90;99.90
16964;DHT22;8598;50.508;10.436;2022-09-14T03:29:51;15.90;99.90
16964;DHT22;8598;50.508;10.436;2022-09-14T03:32:18;15.90;99.90
16964;DHT22;8598;50.508;10.436;2022-09-14T03:34:45;15.80;99.90
16964;DHT22;8598;50.508;10.436;2022-09-14T03:37:12;15.80;99.90
16964;DHT22;8598;50.508;10.436;2022-09-14T03:39:39;15.80;99.90
16964;DHT22;8598;50.508;10.436;2022-09-14T03:42:06;15.80;99.90
16964;DHT22;8598;50.508;10.436;2022-09-14T03:44:32;15.90;99.90
16964;DHT22;8598;50.508;10.436;2022-09-14T03:46:59;15.90;99.90
16964;DHT22;8598;50.508;10.436;2022-09-14T03:49:26;15.90;99.90
16964;DHT22;8598;50.508;10.436;2022-09-14T03:51:52;15.90;99.90
16964;DHT22;8598;50.508;10.436;2022-09-14T03:54:20;15.90;99.90
16964;DHT22;8598;50.508;10.436;2022-09-14T03:56:47;15.90;99.90
16964;DHT22;8598;50.508;10.436;2022-09-14T03:59:13;15.90;99.90
16964;DHT22;8598;50.508;10.436;2022-09-14T04:01:40;15.90;99.90
16964;DHT22;8598;50.508;10.436;2022-09-14T04:04:07;15.90;99.90
16964;DHT22;8598;50.508;10.436;2022-09-14T04:06:33;15.80;99.90
16964;DHT22;8598;50.508;10.436;2022-09-14T04:09:00;15.80;99.90
16964;DHT22;8598;50.508;10.436;2022-09-14T04:11:28;15.90;99.90
16964;DHT22;8598;50.508;10.436;2022-09-14T04:13:59;15.80;99.90
16964;DHT22;8598;50.508;10.436;2022-09-14T04:16:27;15.80;99.90
16964;DHT22;8598;50.508;10.436;2022-09-14T04:18:54;15.80;99.90
16964;DHT22;8598;50.508;10.436;2022-09-14T04:21:22;15.80;99.90
16964;DHT22;8598;50.508;10.436;2022-09-14T04:23:52;15.80;99.90
16964;DHT22;8598;50.508;10.436;2022-09-14T04:26:20;15.80;99.90
16964;DHT22;8598;50.508;10.436;2022-09-14T04:28:48;15.80;99.90
16964;DHT22;8598;50.508;10.436;2022-09-14T04:31:15;15.80;99.90
16964;DHT22;8598;50.508;10.436;2022-09-14T04:33:42;15.80;99.90
16964;DHT22;8598;50.508;10.436;2022-09-14T04:36:10;15.80;99.90
16964;DHT22;8598;50.508;10.436;2022-09-14T04:38:38;15.80;99.90
16964;DHT22;8598;50.508;10.436;2022-09-14T04:41:07;15.80;99.90
16964;DHT22;8598;50.508;10.436;2022-09-14T04:43:34;15.80;99.90
16964;DHT22;8598;50.508;10.436;2022-09-14T04:46:04;15.80;99.90
16964;DHT22;8598;50.508;10.436;2022-09-14T04:48:32;15.80;99.90
16964;DHT22;8598;50.508;10.436;2022-09-14T04:51:00;15.80;99.90
16964;DHT22;8598;50.508;10.436;2022-09-14T04:53:27;15.80;99.90
16964;DHT22;8598;50.508;10.436;2022-09-14T04:55:58;15.80;99.90
16964;DHT22;8598;50.508;10.436;2022-09-14T04:58:26;15.80;99.90
16964;DHT22;8598;50.508;10.436;2022-09-14T05:00:53;15.80;99.90
16964;DHT22;8598;50.508;10.436;2022-09-14T05:03:21;15.80;99.90
16964;DHT22;8598;50.508;10.436;2022-09-14T05:05:47;15.80;99.90
16964;DHT22;8598;50.508;10.436;2022-09-14T05:08:14;15.80;99.90
16964;DHT22;8598;50.508;10.436;2022-09-14T05:10:41;15.80;99.90
16964;DHT22;8598;50.508;10.436;2022-09-14T05:13:07;15.80;99.90
16964;DHT22;8598;50.508;10.436;2022-09-14T05:15:34;15.80;99.90
16964;DHT22;8598;50.508;10.436;2022-09-14T05:18:01;15.80;99.90
16964;DHT22;8598;50.508;10.436;2022-09-14T05:20:29;15.80;99.90
16964;DHT22;8598;50.508;10.436;2022-09-14T05:22:56;15.80;99.90
16964;DHT22;8598;50.508;10.436;2022-09-14T05:25:22;15.80;99.90
16964;DHT22;8598;50.508;10.436;2022-09-14T05:27:50;15.80;99.90
16964;DHT22;8598;50.508;10.436;2022-09-14T05:30:17;15.80;99.90
16964;DHT22;8598;50.508;10.436;2022-09-14T05:32:43;15.80;99.90
16964;DHT22;8598;50.508;10.436;2022-09-14T05:35:10;15.80;99.90
16964;DHT22;8598;50.508;10.436;2022-09-14T05:37:38;15.80;99.90
16964;DHT22;8598;50.508;10.436;2022-09-14T05:40:05;15.80;99.90
16964;DHT22;8598;50.508;10.436;2022-09-14T05:42:33;15.80;99.90
16964;DHT22;8598;50.508;10.436;2022-09-14T05:44:59;15.70;99.90
16964;DHT22;8598;50.508;10.436;2022-09-14T05:47:28;15.70;99.90
16964;DHT22;8598;50.508;10.436;2022-09-14T05:49:55;15.70;99.90
16964;DHT22;8598;50.508;10.436;2022-09-14T05:52:21;15.70;99.90
16964;DHT22;8598;50.508;10.436;2022-09-14T05:54:49;15.80;99.90
16964;DHT22;8598;50.508;10.436;2022-09-14T05:57:16;15.80;99.90
16964;DHT22;8598;50.508;10.436;2022-09-14T05:59:43;15.80;99.90
16964;DHT22;8598;50.508;10.436;2022-09-14T06:02:09;15.80;99.90
16964;DHT22;8598;50.508;10.436;2022-09-14T06:04:36;15.80;99.90
16964;DHT22;8598;50.508;10.436;2022-09-14T06:07:03;15.80;99.90
16964;DHT22;8598;50.508;10.436;2022-09-14T06:09:29;15.80;99.90
16964;DHT22;8598;50.508;10.436;2022-09-14T06:11:58;15.80;99.90
16964;DHT22;8598;50.508;10.436;2022-09-14T06:14:24;15.90;99.90
16964;DHT22;8598;50.508;10.436;2022-09-14T06:16:51;15.90;99.90
16964;DHT22;8598;50.508;10.436;2022-09-14T06:19:17;15.90;99.90
16964;DHT22;8598;50.508;10.436;2022-09-14T06:21:44;15.90;99.90
16964;DHT22;8598;50.508;10.436;2022-09-14T06:24:11;15.90;99.90
16964;DHT22;8598;50.508;10.436;2022-09-14T06:26:38;16.00;99.90
16964;DHT22;8598;50.508;10.436;2022-09-14T06:29:06;16.00;99.90
16964;DHT22;8598;50.508;10.436;2022-09-14T06:31:33;16.10;99.90
16964;DHT22;8598;50.508;10.436;2022-09-14T06:34:00;16.10;99.90
16964;DHT22;8598;50.508;10.436;2022-09-14T06:36:27;16.10;99.90
16964;DHT22;8598;50.508;10.436;2022-09-14T06:38:54;16.20;99.90
16964;DHT22;8598;50.508;10.436;2022-09-14T06:41:22;16.10;99.90
16964;DHT22;8598;50.508;10.436;2022-09-14T06:43:51;16.10;99.90
16964;DHT22;8598;50.508;10.436;2022-09-14T06:46:23;16.10;99.90
16964;DHT22;8598;50.508;10.436;2022-09-14T06:48:53;16.20;99.90
16964;DHT22;8598;50.508;10.436;2022-09-14T06:51:21;16.20;99.90
16964;DHT22;8598;50.508;10.436;2022-09-14T06:53:48;16.20;99.90
16964;DHT22;8598;50.508;10.436;2022-09-14T06:56:16;16.20;99.90
16964;DHT22;8598;50.508;10.436;2022-09-14T06:58:43;16.20;99.90
16964;DHT22;8598;50.508;10.436;2022-09-14T07:01:11;16.30;99.90
16964;DHT22;8598;50.508;10.436;2022-09-14T07:03:41;16.30;99.90
16964;DHT22;8598;50.508;10.436;2022-09-14T07:06:11;16.30;99.90
16964;DHT22;8598;50.508;10.436;2022-09-14T07:08:39;16.30;99.90
16964;DHT22;8598;50.508;10.436;2022-09-14T07:11:07;16.30;99.90
16964;DHT22;8598;50.508;10.436;2022-09-14T07:13:34;16.30;99.90
16964;DHT22;8598;50.508;10.436;2022-09-14T07:16:01;16.30;99.90
16964;DHT22;8598;50.508;10.436;2022-09-14T07:18:29;16.40;99.90
16964;DHT22;8598;50.508;10.436;2022-09-14T07:21:02;16.40;99.90
16964;DHT22;8598;50.508;10.436;2022-09-14T07:23:29;16.40;99.90
16964;DHT22;8598;50.508;10.436;2022-09-14T07:26:00;16.50;99.90
16964;DHT22;8598;50.508;10.436;2022-09-14T07:28:27;16.50;99.90
16964;DHT22;8598;50.508;10.436;2022-09-14T07:30:53;16.50;99.90
16964;DHT22;8598;50.508;10.436;2022-09-14T07:33:20;16.60;99.90
16964;DHT22;8598;50.508;10.436;2022-09-14T07:35:47;16.60;99.90
16964;DHT22;8598;50.508;10.436;2022-09-14T07:38:15;16.70;99.90
16964;DHT22;8598;50.508;10.436;2022-09-14T07:40:42;16.80;99.90
16964;DHT22;8598;50.508;10.436;2022-09-14T07:43:09;16.80;99.90
16964;DHT22;8598;50.508;10.436;2022-09-14T07:45:36;16.90;99.90
16964;DHT22;8598;50.508;10.436;2022-09-14T07:48:03;16.80;99.90
16964;DHT22;8598;50.508;10.436;2022-09-14T07:50:30;16.90;99.90
16964;DHT22;8598;50.508;10.436;2022-09-14T07:52:57;17.00;99.90
16964;DHT22;8598;50.508;10.436;2022-09-14T07:55:25;17.00;99.90
16964;DHT22;8598;50.508;10.436;2022-09-14T07:57:54;17.10;99.90
16964;DHT22;8598;50.508;10.436;2022-09-14T08:00:20;17.10;99.90
16964;DHT22;8598;50.508;10.436;2022-09-14T08:02:51;17.10;99.90
16964;DHT22;8598;50.508;10.436;2022-09-14T08:05:18;17.20;99.90
16964;DHT22;8598;50.508;10.436;2022-09-14T08:07:45;17.30;99.90
16964;DHT22;8598;50.508;10.436;2022-09-14T08:10:11;17.40;99.90
16964;DHT22;8598;50.508;10.436;2022-09-14T08:12:39;17.40;99.90
16964;DHT22;8598;50.508;10.436;2022-09-14T08:15:08;17.50;99.90
16964;DHT22;8598;50.508;10.436;2022-09-14T08:17:34;17.60;99.90
16964;DHT22;8598;50.508;10.436;2022-09-14T08:20:01;17.60;99.90
16964;DHT22;8598;50.508;10.436;2022-09-14T08:22:28;17.60;99.90
16964;DHT22;8598;50.508;10.436;2022-09-14T08:24:55;17.70;99.90
16964;DHT22;8598;50.508;10.436;2022-09-14T08:27:21;17.80;99.90
16964;DHT22;8598;50.508;10.436;2022-09-14T08:29:49;17.70;99.90
16964;DHT22;8598;50.508;10.436;2022-09-14T08:32:16;17.80;99.90
16964;DHT22;8598;50.508;10.436;2022-09-14T08:34:42;17.80;99.90
16964;DHT22;8598;50.508;10.436;2022-09-14T08:37:09;17.90;99.90
16964;DHT22;8598;50.508;10.436;2022-09-14T08:39:37;18.10;99.90
16964;DHT22;8598;50.508;10.436;2022-09-14T08:42:04;18.20;99.90
16964;DHT22;8598;50.508;10.436;2022-09-14T08:44:37;18.30;99.90
16964;DHT22;8598;50.508;10.436;2022-09-14T08:47:11;18.40;99.90
16964;DHT22;8598;50.508;10.436;2022-09-14T08:49:44;18.60;99.90
16964;DHT22;8598;50.508;10.436;2022-09-14T08:52:13;18.70;99.90
16964;DHT22;8598;50.508;10.436;2022-09-14T08:54:40;18.80;99.90
16964;DHT22;8598;50.508;10.436;2022-09-14T08:57:11;18.80;99.90
16964;DHT22;8598;50.508;10.436;2022-09-14T08:59:47;18.90;99.90
16964;DHT22;8598;50.508;10.436;2022-09-14T09:05:25;19.00;99.90
16964;DHT22;8598;50.508;10.436;2022-09-14T09:07:58;18.90;99.90
16964;DHT22;8598;50.508;10.436;2022-09-14T09:10:27;19.00;99.90
16964;DHT22;8598;50.508;10.436;2022-09-14T09:12:57;19.00;99.90
16964;DHT22;8598;50.508;10.436;2022-09-14T09:15:28;18.80;99.90
16964;DHT22;8598;50.508;10.436;2022-09-14T09:18:00;18.60;99.90
16964;DHT22;8598;50.508;10.436;2022-09-14T09:20:30;18.60;99.90
16964;DHT22;8598;50.508;10.436;2022-09-14T09:23:06;18.60;99.90
16964;DHT22;8598;50.508;10.436;2022-09-14T09:25:47;18.50;99.90
16964;DHT22;8598;50.508;10.436;2022-09-14T09:28:15;18.50;99.90
16964;DHT22;8598;50.508;10.436;2022-09-14T09:30:43;18.40;99.90
16964;DHT22;8598;50.508;10.436;2022-09-14T09:33:14;18.50;99.90
16964;DHT22;8598;50.508;10.436;2022-09-14T09:35:43;18.50;99.90
16964;DHT22;8598;50.508;10.436;2022-09-14T09:38:13;18.30;99.90
16964;DHT22;8598;50.508;10.436;2022-09-14T09:40:44;18.30;99.90
16964;DHT22;8598;50.508;10.436;2022-09-14T09:43:12;18.30;99.90
16964;DHT22;8598;50.508;10.436;2022-09-14T09:45:51;18.30;99.90
16964;DHT22;8598;50.508;10.436;2022-09-14T09:48:22;18.30;99.90
16964;DHT22;8598;50.508;10.436;2022-09-14T09:51:00;18.40;99.90
16964;DHT22;8598;50.508;10.436;2022-09-14T09:53:27;18.60;99.90
16964;DHT22;8598;50.508;10.436;2022-09-14T09:55:55;18.90;99.90
16964;DHT22;8598;50.508;10.436;2022-09-14T09:58:27;19.00;99.90
16964;DHT22;8598;50.508;10.436;2022-09-14T10:00:56;19.20;99.90
16964;DHT22;8598;50.508;10.436;2022-09-14T10:03:32;19.40;99.90
16964;DHT22;8598;50.508;10.436;2022-09-14T10:06:06;19.30;99.90
16964;DHT22;8598;50.508;10.436;2022-09-14T10:08:40;19.20;99.90
16964;DHT22;8598;50.508;10.436;2022-09-14T10:11:30;19.10;99.90
16964;DHT22;8598;50.508;10.436;2022-09-14T10:13:57;19.10;99.90
16964;DHT22;8598;50.508;10.436;2022-09-14T10:16:28;19.10;99.90
16964;DHT22;8598;50.508;10.436;2022-09-14T10:18:57;18.80;99.90
16964;DHT22;8598;50.508;10.436;2022-09-14T10:21:27;18.70;99.90
16964;DHT22;8598;50.508;10.436;2022-09-14T10:24:04;18.80;99.90
16964;DHT22;8598;50.508;10.436;2022-09-14T10:26:35;18.70;99.90
16964;DHT22;8598;50.508;10.436;2022-09-14T10:29:34;18.80;99.90
16964;DHT22;8598;50.508;10.436;2022-09-14T10:32:10;18.80;99.90
16964;DHT22;8598;50.508;10.436;2022-09-14T10:34:42;18.80;99.90
16964;DHT22;8598;50.508;10.436;2022-09-14T10:37:18;18.90;99.90
16964;DHT22;8598;50.508;10.436;2022-09-14T10:39:55;18.90;99.90
16964;DHT22;8598;50.508;10.436;2022-09-14T10:42:30;19.00;99.90
16964;DHT22;8598;50.508;10.436;2022-09-14T10:45:18;19.20;99.90
16964;DHT22;8598;50.508;10.436;2022-09-14T10:48:11;19.50;99.90
16964;DHT22;8598;50.508;10.436;2022-09-14T10:50:53;19.70;99.90
16964;DHT22;8598;50.508;10.436;2022-09-14T10:53:40;19.90;99.90
16964;DHT22;8598;50.508;10.436;2022-09-14T10:56:14;20.20;99.90
16964;DHT22;8598;50.508;10.436;2022-09-14T10:59:02;20.60;99.90
16964;DHT22;8598;50.508;10.436;2022-09-14T11:01:42;20.70;99.90
16964;DHT22;8598;50.508;10.436;2022-09-14T11:04:34;20.80;99.90
16964;DHT22;8598;50.508;10.436;2022-09-14T11:07:06;20.80;99.90
16964;DHT22;8598;50.508;10.436;2022-09-14T11:09:39;20.50;99.90
16964;DHT22;8598;50.508;10.436;2022-09-14T11:12:11;20.30;99.90
16964;DHT22;8598;50.508;10.436;2022-09-14T11:14:47;20.30;99.90
16964;DHT22;8598;50.508;10.436;2022-09-14T11:17:34;20.00;99.90
16964;DHT22;8598;50.508;10.436;2022-09-14T11:20:08;19.90;99.90
16964;DHT22;8598;50.508;10.436;2022-09-14T11:22:41;19.70;99.90
16964;DHT22;8598;50.508;10.436;2022-09-14T11:25:15;19.70;99.90
16964;DHT22;8598;50.508;10.436;2022-09-14T11:27:46;19.70;99.90
16964;DHT22;8598;50.508;10.436;2022-09-14T11:30:15;19.70;99.90
16964;DHT22;8598;50.508;10.436;2022-09-14T11:32:47;19.70;99.90
16964;DHT22;8598;50.508;10.436;2022-09-14T11:35:19;19.70;99.90
16964;DHT22;8598;50.508;10.436;2022-09-14T11:37:50;19.80;99.90
16964;DHT22;8598;50.508;10.436;2022-09-14T11:40:25;19.90;99.90
16964;DHT22;8598;50.508;10.436;2022-09-14T11:42:56;20.00;99.90
16964;DHT22;8598;50.508;10.436;2022-09-14T11:45:28;20.00;99.90
16964;DHT22;8598;50.508;10.436;2022-09-14T11:48:00;19.90;99.90
16964;DHT22;8598;50.508;10.436;2022-09-14T11:50:29;19.70;99.90
16964;DHT22;8598;50.508;10.436;2022-09-14T11:53:02;19.50;99.90
16964;DHT22;8598;50.508;10.436;2022-09-14T11:55:31;19.40;99.90
16964;DHT22;8598;50.508;10.436;2022-09-14T11:57:58;19.30;99.90
16964;DHT22;8598;50.508;10.436;2022-09-14T12:00:45;19.20;99.90
16964;DHT22;8598;50.508;10.436;2022-09-14T12:03:16;19.20;99.90
16964;DHT22;8598;50.508;10.436;2022-09-14T12:05:43;19.30;99.90
16964;DHT22;8598;50.508;10.436;2022-09-14T12:08:38;19.20;99.90
16964;DHT22;8598;50.508;10.436;2022-09-14T12:11:32;19.00;99.90
16964;DHT22;8598;50.508;10.436;2022-09-14T12:14:26;18.90;99.90
16964;DHT22;8598;50.508;10.436;2022-09-14T12:17:13;19.00;99.90
16964;DHT22;8598;50.508;10.436;2022-09-14T12:19:41;19.00;99.90
16964;DHT22;8598;50.508;10.436;2022-09-14T12:22:29;18.90;99.90
16964;DHT22;8598;50.508;10.436;2022-09-14T12:24:58;18.90;99.90
16964;DHT22;8598;50.508;10.436;2022-09-14T12:27:29;18.90;99.90
16964;DHT22;8598;50.508;10.436;2022-09-14T12:29:57;18.90;99.90
16964;DHT22;8598;50.508;10.436;2022-09-14T12:32:27;18.90;99.90
16964;DHT22;8598;50.508;10.436;2022-09-14T12:35:39;18.90;99.90
16964;DHT22;8598;50.508;10.436;2022-09-14T12:38:37;19.10;99.90
16964;DHT22;8598;50.508;10.436;2022-09-14T12:41:56;19.20;99.90
16964;DHT22;8598;50.508;10.436;2022-09-14T12:44:39;19.10;99.90
16964;DHT22;8598;50.508;10.436;2022-09-14T12:47:37;19.00;99.90
16964;DHT22;8598;50.508;10.436;2022-09-14T12:50:08;19.00;99.90
16964;DHT22;8598;50.508;10.436;2022-09-14T12:52:46;19.20;99.90
16964;DHT22;8598;50.508;10.436;2022-09-14T12:55:25;19.30;99.90
16964;DHT22;8598;50.508;10.436;2022-09-14T12:58:02;19.40;99.90
16964;DHT22;8598;50.508;10.436;2022-09-14T13:00:47;19.40;99.90
16964;DHT22;8598;50.508;10.436;2022-09-14T13:03:27;19.40;99.90
16964;DHT22;8598;50.508;10.436;2022-09-14T13:06:01;19.30;99.90
16964;DHT22;8598;50.508;10.436;2022-09-14T13:08:27;19.40;99.90
16964;DHT22;8598;50.508;10.436;2022-09-14T13:10:54;19.30;99.90
16964;DHT22;8598;50.508;10.436;2022-09-14T13:13:24;19.40;99.90
16964;DHT22;8598;50.508;10.436;2022-09-14T13:15:56;19.40;99.90
16964;DHT22;8598;50.508;10.436;2022-09-14T13:18:32;19.50;99.90
16964;DHT22;8598;50.508;10.436;2022-09-14T13:21:00;19.60;99.90
16964;DHT22;8598;50.508;10.436;2022-09-14T13:23:29;19.60;99.90
16964;DHT22;8598;50.508;10.436;2022-09-14T13:25:58;19.50;99.90
16964;DHT22;8598;50.508;10.436;2022-09-14T13:28:28;19.50;99.90
16964;DHT22;8598;50.508;10.436;2022-09-14T13:30:59;19.60;99.90
16964;DHT22;8598;50.508;10.436;2022-09-14T13:33:27;19.50;99.90
16964;DHT22;8598;50.508;10.436;2022-09-14T13:35:55;19.40;99.90
16964;DHT22;8598;50.508;10.436;2022-09-14T13:38:24;19.30;99.90
16964;DHT22;8598;50.508;10.436;2022-09-14T13:40:53;19.30;99.90
16964;DHT22;8598;50.508;10.436;2022-09-14T13:43:21;19.30;99.90
16964;DHT22;8598;50.508;10.436;2022-09-14T13:45:49;19.20;99.90
16964;DHT22;8598;50.508;10.436;2022-09-14T13:48:18;19.10;99.90
16964;DHT22;8598;50.508;10.436;2022-09-14T13:50:47;19.00;99.90
16964;DHT22;8598;50.508;10.436;2022-09-14T13:53:36;19.00;99.90
16964;DHT22;8598;50.508;10.436;2022-09-14T13:56:20;18.80;99.90
16964;DHT22;8598;50.508;10.436;2022-09-14T13:58:48;18.60;99.90
16964;DHT22;8598;50.508;10.436;2022-09-14T14:01:23;18.50;99.90
16964;DHT22;8598;50.508;10.436;2022-09-14T14:03:52;18.50;99.90
16964;DHT22;8598;50.508;10.436;2022-09-14T14:06:22;18.50;99.90
16964;DHT22;8598;50.508;10.436;2022-09-14T14:09:01;18.40;99.90
16964;DHT22;8598;50.508;10.436;2022-09-14T14:11:31;18.40;99.90
16964;DHT22;8598;50.508;10.436;2022-09-14T14:14:12;18.30;99.90
16964;DHT22;8598;50.508;10.436;2022-09-14T14:16:39;18.30;99.90
16964;DHT22;8598;50.508;10.436;2022-09-14T14:19:26;18.30;99.90
16964;DHT22;8598;50.508;10.436;2022-09-14T14:22:14;18.30;99.90
16964;DHT22;8598;50.508;10.436;2022-09-14T14:24:41;18.30;99.90
16964;DHT22;8598;50.508;10.436;2022-09-14T14:27:25;18.40;99.90
16964;DHT22;8598;50.508;10.436;2022-09-14T14:29:52;18.30;99.90
16964;DHT22;8598;50.508;10.436;2022-09-14T14:32:19;18.30;99.90
16964;DHT22;8598;50.508;10.436;2022-09-14T14:34:47;18.30;99.90
16964;DHT22;8598;50.508;10.436;2022-09-14T14:37:14;18.30;99.90
16964;DHT22;8598;50.508;10.436;2022-09-14T14:39:41;18.30;99.90
16964;DHT22;8598;50.508;10.436;2022-09-14T14:42:08;18.30;99.90
16964;DHT22;8598;50.508;10.436;2022-09-14T14:44:36;18.30;99.90
16964;DHT22;8598;50.508;10.436;2022-09-14T14:47:04;18.40;99.90
16964;DHT22;8598;50.508;10.436;2022-09-14T14:49:32;18.40;99.90
16964;DHT22;8598;50.508;10.436;2022-09-14T14:52:00;18.40;99.90
16964;DHT22;8598;50.508;10.436;2022-09-14T14:54:27;18.50;99.90
16964;DHT22;8598;50.508;10.436;2022-09-14T14:56:54;18.50;99.90
16964;DHT22;8598;50.508;10.436;2022-09-14T14:59:25;18.50;99.90
16964;DHT22;8598;50.508;10.436;2022-09-14T15:01:53;18.50;99.90
16964;DHT22;8598;50.508;10.436;2022-09-14T15:04:20;18.50;99.90
16964;DHT22;8598;50.508;10.436;2022-09-14T15:06:48;18.40;99.90
16964;DHT22;8598;50.508;10.436;2022-09-14T15:09:17;18.40;99.90
16964;DHT22;8598;50.508;10.436;2022-09-14T15:11:44;18.40;99.90
16964;DHT22;8598;50.508;10.436;2022-09-14T15:14:12;18.40;99.90
16964;DHT22;8598;50.508;10.436;2022-09-14T15:16:39;18.40;99.90
16964;DHT22;8598;50.508;10.436;2022-09-14T15:19:06;18.40;99.90
16964;DHT22;8598;50.508;10.436;2022-09-14T15:21:34;18.40;99.90
16964;DHT22;8598;50.508;10.436;2022-09-14T15:24:01;18.30;99.90
16964;DHT22;8598;50.508;10.436;2022-09-14T15:26:29;18.30;99.90
16964;DHT22;8598;50.508;10.436;2022-09-14T15:28:56;18.20;99.90
16964;DHT22;8598;50.508;10.436;2022-09-14T15:31:23;18.20;99.90
16964;DHT22;8598;50.508;10.436;2022-09-14T15:33:49;18.30;99.90
16964;DHT22;8598;50.508;10.436;2022-09-14T15:36:34;18.20;99.90
16964;DHT22;8598;50.508;10.436;2022-09-14T15:39:01;18.30;99.90
16964;DHT22;8598;50.508;10.436;2022-09-14T15:41:29;18.30;99.90
16964;DHT22;8598;50.508;10.436;2022-09-14T15:43:56;18.30;99.90
16964;DHT22;8598;50.508;10.436;2022-09-14T15:46:23;18.30;99.90
16964;DHT22;8598;50.508;10.436;2022-09-14T15:48:50;18.30;99.90
16964;DHT22;8598;50.508;10.436;2022-09-14T15:51:16;18.20;99.90
16964;DHT22;8598;50.508;10.436;2022-09-14T15:53:44;18.20;99.90
16964;DHT22;8598;50.508;10.436;2022-09-14T15:56:13;18.20;99.90
16964;DHT22;8598;50.508;10.436;2022-09-14T15:58:41;18.20;99.90